Time;durP1;ratioP1;P1;durP2;ratioP2;P2;SDS_P1;SDS_P2;PMS_P1;PMS_P2;Temp;Humidity;BMP_temperature;BMP_pressure;BME280_temperature;BME280_humidity;BME280_pressure;Samples;Min_cycle;Max_cycle;Signal;HPM_P1;HPM_P2
2022/03/13 00:00:18;;;;;;;;;;;;;;;;;;1035154;28;818;-31
2022/03/13 00:00:59;;;;;;;;;;;;;;;;;;1035876;28;1097;-34
2022/03/13 00:01:31;;;;;;;;;;;;;;;;;;1035923;28;871;-33
2022/03/13 00:02:02;;;;;;;;;;;;;;;;;;1035830;28;950;-31
2022/03/13 00:02:32;;;;;;;;;;;;;;;;;;1035200;28;1906;-28
2022/03/13 00:03:09;;;;;;;;;;;;;;;;;;1035850;28;961;-34
2022/03/13 00:03:39;;;;;;;;;;;;;;;;;;1035700;28;1025;-31
2022/03/13 00:04:13;;;;;;;;;;;;;;;;;;1035934;28;945;-32
2022/03/13 00:04:48;;;;;;;;;;;;;;;;;;1035823;28;925;-34
2022/03/13 00:05:19;;;;;;;;;;;;;;;;;;1031246;28;759;-31
2022/03/13 00:05:50;;;;;;;;;;;;;;;;;;1031639;28;831;-31
2022/03/13 00:06:27;;;;;;;;;;;;;;;;;;1031329;28;870;-31
2022/03/13 00:06:58;;;;;;;;;;;;;;;;;;1032658;28;854;-30
2022/03/13 00:07:29;;;;;;;;;;;;;;;;;;1035897;28;938;-30
2022/03/13 00:08:00;;;;;;;;;;;;;;;;;;1035605;28;856;-29
2022/03/13 00:08:32;;;;;;;;;;;;;;;;;;1035942;28;871;-30
2022/03/13 00:09:05;;;;;;;;;;;;;;;;;;1035674;28;957;-32
2022/03/13 00:09:35;;;;;;;;;;;;;;;;;;1035846;28;788;-30
2022/03/13 00:10:06;;;;;;;;;;;;;;;;;;1035415;28;920;-32
2022/03/13 00:10:36;;;;;;;;;;;;;;;;;;1035623;28;800;-31
2022/03/13 00:11:08;;;;;;;;;;;;;;;;;;1035972;28;990;-29
2022/03/13 00:11:39;;;;;;;;;;;;;;;;;;1035606;28;1038;-33
2022/03/13 00:12:12;;;;;;;;;;;;;;;;;;1036034;28;826;-29
2022/03/13 00:12:43;;;;;;;;;;;;;;;;;;1035608;28;982;-30
2022/03/13 00:13:18;;;;;;;;;;;;;;;;;;1035781;28;974;-34
2022/03/13 00:13:51;;;;;;;;;;;;;;;;;;1035903;28;965;-32
2022/03/13 00:14:24;;;;;;;;;;;;;;;;;;1035623;28;922;-33
2022/03/13 00:14:56;;;;;;;;;;;;;;;;;;1035780;28;1529;-32
2022/03/13 00:15:35;;;;;;;;;;;;;;;;;;1035899;28;930;-32
2022/03/13 00:16:08;;;;;;;;;;;;;;;;;;1035727;28;859;-31
2022/03/13 00:16:39;;;;;;;;;;;;;;;;;;1035758;28;819;-30
2022/03/13 00:17:14;;;;;;;;;;;;;;;;;;1035866;28;807;-30
2022/03/13 00:17:44;;;;;;;;;;;;;;;;;;1035221;28;981;-32
2022/03/13 00:18:14;;;;;;;;;;;;;;;;;;1035871;28;910;-31
2022/03/13 00:18:46;;;;;;;;;;;;;;;;;;1035790;28;911;-32
2022/03/13 00:19:21;;;;;;;;;;;;;;;;;;1035906;28;870;-32
2022/03/13 00:19:52;;;;;;;;;;;;;;;;;;1035660;28;924;-31
2022/03/13 00:20:23;;;;;;;;;;;;;;;;;;1036038;28;1508;-31
2022/03/13 00:20:53;;;;;;;;;;;;;;;;;;1035678;28;807;-33
2022/03/13 00:21:24;;;;;;;;;;;;;;;;;;1035846;28;922;-30
2022/03/13 00:21:55;;;;;;;;;;;;;;;;;;1035795;28;804;-30
2022/03/13 00:22:35;;;;;;;;;;;;;;;;;;1035754;28;1991;-31
2022/03/13 00:23:06;;;;;;;;;;;;;;;;;;1035711;28;977;-28
2022/03/13 00:23:37;;;;;;;;;;;;;;;;;;1035807;28;842;-34
2022/03/13 00:24:07;;;;;;;;;;;;;;;;;;1031336;28;843;-30
2022/03/13 00:24:38;;;;;;;;;;;;;;;;;;1031490;28;910;-33
2022/03/13 00:25:09;;;;;;;;;;;;;;;;;;1031743;28;1118;-30
2022/03/13 00:25:40;;;;;;;;;;;;;;;;;;1035635;28;945;-32
2022/03/13 00:26:11;;;;;;;;;;;;;;;;;;1039951;28;910;-33
2022/03/13 00:26:41;;;;;;;;;;;;;;;;;;1039832;28;831;-34
2022/03/13 00:27:11;;;;;;;;;;;;;;;;;;1039983;28;803;-32
2022/03/13 00:27:42;;;;;;;;;;;;;;;;;;1039762;28;815;-34
2022/03/13 00:28:13;;;;;;;;;;;;;;;;;;1039939;28;941;-32
2022/03/13 00:28:45;;;;;;;;;;;;;;;;;;1039978;28;889;-32
2022/03/13 00:29:15;;;;;;;;;;;;;;;;;;1039728;28;863;-35
2022/03/13 00:29:46;;;;;;;;;;;;;;;;;;1040003;28;863;-33
2022/03/13 00:30:16;;;;;;;;;;;;;;;;;;1039401;28;1000;-32
2022/03/13 00:30:47;;;;;;;;;;;;;;;;;;1039550;28;830;-34
2022/03/13 00:31:18;;;;;;;;;;;;;;;;;;1039585;28;929;-34
2022/03/13 00:31:48;;;;;;;;;;;;;;;;;;1035344;28;1120;-32
2022/03/13 00:32:19;;;;;;;;;;;;;;;;;;1034857;28;811;-30
2022/03/13 00:32:50;;;;;;;;;;;;;;;;;;1035304;28;866;-33
2022/03/13 00:33:21;;;;;;;;;;;;;;;;;;1035721;28;803;-32
2022/03/13 00:33:51;;;;;;;;;;;;;;;;;;1039853;28;866;-32
2022/03/13 00:34:21;;;;;;;;;;;;;;;;;;1039829;28;850;-30
2022/03/13 00:34:52;;;;;;;;;;;;;;;;;;1039961;28;847;-30
2022/03/13 00:35:22;;;;;;;;;;;;;;;;;;1039879;28;981;-33
2022/03/13 00:35:52;;;;;;;;;;;;;;;;;;1039686;28;799;-33
2022/03/13 00:36:24;;;;;;;;;;;;;;;;;;1040034;28;866;-32
2022/03/13 00:36:54;;;;;;;;;;;;;;;;;;1039731;28;929;-31
2022/03/13 00:37:24;;;;;;;;;;;;;;;;;;1040013;28;921;-27
2022/03/13 00:37:55;;;;;;;;;;;;;;;;;;1039630;28;883;-33
2022/03/13 00:38:25;;;;;;;;;;;;;;;;;;1039892;28;858;-33
2022/03/13 00:38:56;;;;;;;;;;;;;;;;;;1039866;28;903;-30
2022/03/13 00:39:27;;;;;;;;;;;;;;;;;;1039859;28;929;-30
2022/03/13 00:39:58;;;;;;;;;;;;;;;;;;1039198;28;914;-29
2022/03/13 00:40:28;;;;;;;;;;;;;;;;;;1039944;28;1407;-34
2022/03/13 00:40:59;;;;;;;;;;;;;;;;;;1039594;28;914;-28
2022/03/13 00:41:29;;;;;;;;;;;;;;;;;;1039941;28;808;-30
2022/03/13 00:42:00;;;;;;;;;;;;;;;;;;1039302;28;819;-31
2022/03/13 00:42:30;;;;;;;;;;;;;;;;;;1039463;28;1973;-32
2022/03/13 00:43:01;;;;;;;;;;;;;;;;;;1039330;28;930;-31
2022/03/13 00:43:32;;;;;;;;;;;;;;;;;;1039553;28;874;-30
2022/03/13 00:44:02;;;;;;;;;;;;;;;;;;1039622;28;1113;-30
2022/03/13 00:44:33;;;;;;;;;;;;;;;;;;1040015;28;965;-32
2022/03/13 00:45:03;;;;;;;;;;;;;;;;;;1039662;28;950;-32
2022/03/13 00:45:34;;;;;;;;;;;;;;;;;;1039943;28;1043;-32
2022/03/13 00:46:04;;;;;;;;;;;;;;;;;;1039653;28;998;-31
2022/03/13 00:46:35;;;;;;;;;;;;;;;;;;1041626;28;1196;-32
2022/03/13 00:47:06;;;;;;;;;;;;;;;;;;1043136;28;1208;-31
2022/03/13 00:47:36;;;;;;;;;;;;;;;;;;1043936;28;894;-30
2022/03/13 00:48:07;;;;;;;;;;;;;;;;;;1043765;28;823;-35
2022/03/13 00:48:37;;;;;;;;;;;;;;;;;;1043965;28;882;-27
2022/03/13 00:49:08;;;;;;;;;;;;;;;;;;1043853;28;851;-29
2022/03/13 00:49:38;;;;;;;;;;;;;;;;;;1044002;28;802;-34
2022/03/13 00:50:08;;;;;;;;;;;;;;;;;;1039391;28;965;-31
2022/03/13 00:50:39;;;;;;;;;;;;;;;;;;1039480;28;858;-32
2022/03/13 00:51:10;;;;;;;;;;;;;;;;;;1039483;28;997;-33
2022/03/13 00:51:40;;;;;;;;;;;;;;;;;;1039549;28;891;-32
2022/03/13 00:52:10;;;;;;;;;;;;;;;;;;1043905;28;1245;-27
2022/03/13 00:52:41;;;;;;;;;;;;;;;;;;1043679;28;901;-32
2022/03/13 00:53:12;;;;;;;;;;;;;;;;;;1043289;28;946;-30
2022/03/13 00:53:43;;;;;;;;;;;;;;;;;;1044021;28;898;-31
2022/03/13 00:54:13;;;;;;;;;;;;;;;;;;1043710;28;811;-34
2022/03/13 00:54:44;;;;;;;;;;;;;;;;;;1043370;28;1614;-33
2022/03/13 00:55:14;;;;;;;;;;;;;;;;;;1043719;28;886;-34
2022/03/13 00:55:45;;;;;;;;;;;;;;;;;;1043978;28;952;-32
2022/03/13 00:56:15;;;;;;;;;;;;;;;;;;1043870;28;987;-35
2022/03/13 00:56:45;;;;;;;;;;;;;;;;;;1043902;28;954;-33
2022/03/13 00:57:17;;;;;;;;;;;;;;;;;;1043825;28;823;-28
2022/03/13 00:57:47;;;;;;;;;;;;;;;;;;1043911;28;826;-32
2022/03/13 00:58:17;;;;;;;;;;;;;;;;;;1043752;28;1067;-33
2022/03/13 00:58:48;;;;;;;;;;;;;;;;;;1044094;28;894;-31
2022/03/13 00:59:18;;;;;;;;;;;;;;;;;;1043648;28;1016;-31
2022/03/13 00:59:48;;;;;;;;;;;;;;;;;;1043976;28;946;-30
2022/03/13 01:00:19;;;;;;;;;;;;;;;;;;1043772;28;885;-33
2022/03/13 01:00:49;;;;;;;;;;;;;;;;;;1043869;28;886;-33
2022/03/13 01:01:19;;;;;;;;;;;;;;;;;;1043888;28;886;-32
2022/03/13 01:01:50;;;;;;;;;;;;;;;;;;1043384;28;881;-31
2022/03/13 01:02:20;;;;;;;;;;;;;;;;;;1043535;28;1909;-31
2022/03/13 01:02:54;;;;;;;;;;;;;;;;;;1043896;28;788;-32
2022/03/13 01:03:47;;;;;;;;;;;;;;;;;;1043839;28;831;-32
2022/03/13 01:04:17;;;;;;;;;;;;;;;;;;1043837;28;870;-31
2022/03/13 01:04:48;;;;;;;;;;;;;;;;;;1043910;28;985;-32
2022/03/13 01:05:23;;;;;;;;;;;;;;;;;;1043793;28;902;-30
2022/03/13 01:05:53;;;;;;;;;;;;;;;;;;1043930;28;767;-30
2022/03/13 01:06:24;;;;;;;;;;;;;;;;;;1043915;28;901;-32
2022/03/13 01:06:54;;;;;;;;;;;;;;;;;;1043494;28;1117;-31
2022/03/13 01:07:25;;;;;;;;;;;;;;;;;;1043396;28;942;-34
2022/03/13 01:07:56;;;;;;;;;;;;;;;;;;1043407;28;871;-30
2022/03/13 01:08:27;;;;;;;;;;;;;;;;;;1043522;28;831;-30
2022/03/13 01:08:57;;;;;;;;;;;;;;;;;;1043752;28;930;-31
2022/03/13 01:09:29;;;;;;;;;;;;;;;;;;1043278;28;937;-32
2022/03/13 01:09:59;;;;;;;;;;;;;;;;;;1043719;28;877;-33
2022/03/13 01:10:30;;;;;;;;;;;;;;;;;;1043979;28;819;-31
2022/03/13 01:11:01;;;;;;;;;;;;;;;;;;1043669;28;914;-31
2022/03/13 01:11:31;;;;;;;;;;;;;;;;;;1043788;28;937;-32
2022/03/13 01:12:02;;;;;;;;;;;;;;;;;;1043334;28;1002;-34
2022/03/13 01:12:32;;;;;;;;;;;;;;;;;;1043470;28;950;-34
2022/03/13 01:13:02;;;;;;;;;;;;;;;;;;1043544;28;866;-32
2022/03/13 01:13:35;;;;;;;;;;;;;;;;;;1043445;28;887;-28
2022/03/13 01:14:05;;;;;;;;;;;;;;;;;;1043678;28;1613;-29
2022/03/13 01:14:37;;;;;;;;;;;;;;;;;;1039284;28;1094;-30
2022/03/13 01:15:08;;;;;;;;;;;;;;;;;;1039387;28;1032;-33
2022/03/13 01:15:40;;;;;;;;;;;;;;;;;;1039286;28;871;-33
2022/03/13 01:16:37;;;;;;;;;;;;;;;;;;1040036;28;827;-33
2022/03/13 01:17:08;;;;;;;;;;;;;;;;;;1040738;28;1118;-32
2022/03/13 01:17:38;;;;;;;;;;;;;;;;;;1043745;28;764;-33
2022/03/13 01:18:10;;;;;;;;;;;;;;;;;;1043636;28;811;-31
2022/03/13 01:18:43;;;;;;;;;;;;;;;;;;1043848;28;846;-30
2022/03/13 01:19:13;;;;;;;;;;;;;;;;;;1039253;28;945;-32
2022/03/13 01:19:44;;;;;;;;;;;;;;;;;;1039389;28;855;-32
2022/03/13 01:20:19;;;;;;;;;;;;;;;;;;1039369;28;775;-31
2022/03/13 01:20:49;;;;;;;;;;;;;;;;;;1039863;28;855;-30
2022/03/13 01:21:19;;;;;;;;;;;;;;;;;;1043745;28;1609;-30
2022/03/13 01:21:50;;;;;;;;;;;;;;;;;;1043764;28;814;-31
2022/03/13 01:22:20;;;;;;;;;;;;;;;;;;1043639;28;1913;-31
2022/03/13 01:22:50;;;;;;;;;;;;;;;;;;1043902;28;870;-31
2022/03/13 01:23:21;;;;;;;;;;;;;;;;;;1043219;28;1318;-30
2022/03/13 01:23:57;;;;;;;;;;;;;;;;;;1043293;28;886;-32
2022/03/13 01:24:29;;;;;;;;;;;;;;;;;;1043495;28;799;-33
2022/03/13 01:25:00;;;;;;;;;;;;;;;;;;1043409;28;993;-28
2022/03/13 01:25:30;;;;;;;;;;;;;;;;;;1039801;28;1160;-30
2022/03/13 01:26:20;;;;;;;;;;;;;;;;;;1039526;28;858;-32
2022/03/13 01:26:56;;;;;;;;;;;;;;;;;;1039717;28;953;-27
2022/03/13 01:27:26;;;;;;;;;;;;;;;;;;1039641;28;810;-31
2022/03/13 01:27:57;;;;;;;;;;;;;;;;;;1039443;28;783;-31
2022/03/13 01:28:29;;;;;;;;;;;;;;;;;;1039671;28;791;-29
2022/03/13 01:29:00;;;;;;;;;;;;;;;;;;1039595;28;841;-31
2022/03/13 01:29:32;;;;;;;;;;;;;;;;;;1039670;28;926;-29
2022/03/13 01:30:04;;;;;;;;;;;;;;;;;;1039642;28;866;-33
2022/03/13 01:30:34;;;;;;;;;;;;;;;;;;1039597;28;946;-31
2022/03/13 01:31:05;;;;;;;;;;;;;;;;;;1039765;28;846;-32
2022/03/13 01:31:37;;;;;;;;;;;;;;;;;;1038960;28;811;-32
2022/03/13 01:32:09;;;;;;;;;;;;;;;;;;1039602;28;1730;-32
2022/03/13 01:32:40;;;;;;;;;;;;;;;;;;1039535;28;938;-31
2022/03/13 01:33:10;;;;;;;;;;;;;;;;;;1039675;28;866;-31
2022/03/13 01:33:40;;;;;;;;;;;;;;;;;;1039620;28;1008;-30
2022/03/13 01:34:11;;;;;;;;;;;;;;;;;;1039636;28;819;-30
2022/03/13 01:34:48;;;;;;;;;;;;;;;;;;1039596;28;782;-31
2022/03/13 01:35:20;;;;;;;;;;;;;;;;;;1039417;28;843;-32
2022/03/13 01:35:51;;;;;;;;;;;;;;;;;;1039826;28;965;-32
2022/03/13 01:36:21;;;;;;;;;;;;;;;;;;1039484;28;786;-30
2022/03/13 01:36:52;;;;;;;;;;;;;;;;;;1039592;28;948;-30
2022/03/13 01:37:27;;;;;;;;;;;;;;;;;;1039673;28;918;-30
2022/03/13 01:37:58;;;;;;;;;;;;;;;;;;1039399;28;787;-32
2022/03/13 01:38:31;;;;;;;;;;;;;;;;;;1039726;28;914;-30
2022/03/13 01:39:03;;;;;;;;;;;;;;;;;;1038985;28;791;-29
2022/03/13 01:39:33;;;;;;;;;;;;;;;;;;1039483;28;834;-34
2022/03/13 01:40:06;;;;;;;;;;;;;;;;;;1039647;28;988;-27
2022/03/13 01:40:36;;;;;;;;;;;;;;;;;;1039521;28;811;-29
2022/03/13 01:41:07;;;;;;;;;;;;;;;;;;1039700;28;846;-31
2022/03/13 01:41:38;;;;;;;;;;;;;;;;;;1039607;28;854;-31
2022/03/13 01:42:08;;;;;;;;;;;;;;;;;;1039607;28;889;-29
2022/03/13 01:42:44;;;;;;;;;;;;;;;;;;1039520;28;1917;-33
2022/03/13 01:43:14;;;;;;;;;;;;;;;;;;1039416;28;775;-28
2022/03/13 01:43:45;;;;;;;;;;;;;;;;;;1039783;28;767;-28
2022/03/13 01:44:15;;;;;;;;;;;;;;;;;;1041387;28;1184;-28
2022/03/13 01:44:45;;;;;;;;;;;;;;;;;;1043680;28;938;-31
2022/03/13 01:45:17;;;;;;;;;;;;;;;;;;1043548;28;906;-27
2022/03/13 01:45:47;;;;;;;;;;;;;;;;;;1043835;28;964;-29
2022/03/13 01:46:18;;;;;;;;;;;;;;;;;;1043042;28;925;-31
2022/03/13 01:46:48;;;;;;;;;;;;;;;;;;1043640;28;1317;-31
2022/03/13 01:47:20;;;;;;;;;;;;;;;;;;1043471;28;913;-30
2022/03/13 01:47:51;;;;;;;;;;;;;;;;;;1043738;28;1048;-32
2022/03/13 01:48:21;;;;;;;;;;;;;;;;;;1043547;28;950;-33
2022/03/13 01:48:54;;;;;;;;;;;;;;;;;;1043590;28;847;-33
2022/03/13 01:49:25;;;;;;;;;;;;;;;;;;1043628;28;1359;-31
2022/03/13 01:49:55;;;;;;;;;;;;;;;;;;1043619;28;1634;-34
2022/03/13 01:50:27;;;;;;;;;;;;;;;;;;1043577;28;887;-29
2022/03/13 01:50:57;;;;;;;;;;;;;;;;;;1043765;28;902;-32
2022/03/13 01:51:27;;;;;;;;;;;;;;;;;;1043503;28;846;-31
2022/03/13 01:51:57;;;;;;;;;;;;;;;;;;1043662;28;1280;-29
2022/03/13 01:52:28;;;;;;;;;;;;;;;;;;1043612;28;878;-30
2022/03/13 01:52:59;;;;;;;;;;;;;;;;;;1043770;28;858;-32
2022/03/13 01:53:29;;;;;;;;;;;;;;;;;;1043384;28;925;-31
2022/03/13 01:54:02;;;;;;;;;;;;;;;;;;1043287;28;866;-32
2022/03/13 01:54:32;;;;;;;;;;;;;;;;;;1043659;28;961;-30
2022/03/13 01:55:03;;;;;;;;;;;;;;;;;;1043736;28;941;-29
2022/03/13 01:55:33;;;;;;;;;;;;;;;;;;1043467;28;1138;-31
2022/03/13 01:56:04;;;;;;;;;;;;;;;;;;1043813;28;830;-32
2022/03/13 01:56:35;;;;;;;;;;;;;;;;;;1043598;28;1017;-31
2022/03/13 01:57:05;;;;;;;;;;;;;;;;;;1043828;28;902;-28
2022/03/13 01:57:37;;;;;;;;;;;;;;;;;;1043551;28;1686;-32
2022/03/13 01:58:07;;;;;;;;;;;;;;;;;;1043578;28;815;-31
2022/03/13 01:58:37;;;;;;;;;;;;;;;;;;1039067;28;1522;-27
2022/03/13 01:59:09;;;;;;;;;;;;;;;;;;1039240;28;1652;-31
2022/03/13 01:59:41;;;;;;;;;;;;;;;;;;1039055;28;816;-30
2022/03/13 02:00:11;;;;;;;;;;;;;;;;;;1039777;28;902;-30
2022/03/13 02:00:48;;;;;;;;;;;;;;;;;;1043503;28;894;-33
2022/03/13 02:01:19;;;;;;;;;;;;;;;;;;1043176;28;921;-32
2022/03/13 02:01:50;;;;;;;;;;;;;;;;;;1043551;28;886;-30
2022/03/13 02:02:22;;;;;;;;;;;;;;;;;;1043612;28;794;-34
2022/03/13 02:02:52;;;;;;;;;;;;;;;;;;1043612;28;863;-33
2022/03/13 02:03:24;;;;;;;;;;;;;;;;;;1043648;28;875;-33
2022/03/13 02:03:54;;;;;;;;;;;;;;;;;;1043550;28;886;-30
2022/03/13 02:04:26;;;;;;;;;;;;;;;;;;1043744;28;767;-32
2022/03/13 02:04:57;;;;;;;;;;;;;;;;;;1043675;28;902;-32
2022/03/13 02:05:32;;;;;;;;;;;;;;;;;;1043654;28;921;-31
2022/03/13 02:06:02;;;;;;;;;;;;;;;;;;1043661;28;822;-30
2022/03/13 02:06:32;;;;;;;;;;;;;;;;;;1043653;28;1397;-35
2022/03/13 02:07:03;;;;;;;;;;;;;;;;;;1043823;28;938;-33
2022/03/13 02:07:35;;;;;;;;;;;;;;;;;;1043532;28;853;-33
2022/03/13 02:08:19;;;;;;;;;;;;;;;;;;1043494;28;981;-31
2022/03/13 02:08:50;;;;;;;;;;;;;;;;;;1043286;28;774;-32
2022/03/13 02:09:21;;;;;;;;;;;;;;;;;;1043738;28;949;-32
2022/03/13 02:09:51;;;;;;;;;;;;;;;;;;1043565;28;937;-34
2022/03/13 02:10:21;;;;;;;;;;;;;;;;;;1043164;28;653;-31
2022/03/13 02:10:52;;;;;;;;;;;;;;;;;;1043271;28;869;-32
2022/03/13 02:11:23;;;;;;;;;;;;;;;;;;1043290;28;934;-33
2022/03/13 02:11:54;;;;;;;;;;;;;;;;;;1043198;28;1028;-31
2022/03/13 02:12:25;;;;;;;;;;;;;;;;;;1043603;28;854;-34
2022/03/13 02:12:56;;;;;;;;;;;;;;;;;;1043486;28;878;-32
2022/03/13 02:13:27;;;;;;;;;;;;;;;;;;1043741;28;827;-29
2022/03/13 02:13:58;;;;;;;;;;;;;;;;;;1043509;28;1010;-30
2022/03/13 02:14:28;;;;;;;;;;;;;;;;;;1043597;28;918;-32
2022/03/13 02:14:59;;;;;;;;;;;;;;;;;;1039226;28;866;-32
2022/03/13 02:15:30;;;;;;;;;;;;;;;;;;1039122;28;842;-34
2022/03/13 02:16:04;;;;;;;;;;;;;;;;;;1038626;28;796;-34
2022/03/13 02:16:35;;;;;;;;;;;;;;;;;;1039633;28;831;-33
2022/03/13 02:17:05;;;;;;;;;;;;;;;;;;1043637;28;909;-34
2022/03/13 02:17:37;;;;;;;;;;;;;;;;;;1043753;28;852;-34
2022/03/13 02:18:07;;;;;;;;;;;;;;;;;;1043438;28;819;-34
2022/03/13 02:18:40;;;;;;;;;;;;;;;;;;1043538;28;1007;-32
2022/03/13 02:19:11;;;;;;;;;;;;;;;;;;1043600;28;1004;-30
2022/03/13 02:19:41;;;;;;;;;;;;;;;;;;1043673;28;905;-31
2022/03/13 02:20:13;;;;;;;;;;;;;;;;;;1043698;28;783;-29
2022/03/13 02:20:44;;;;;;;;;;;;;;;;;;1043372;28;815;-32
2022/03/13 02:21:18;;;;;;;;;;;;;;;;;;1043703;28;882;-35
2022/03/13 02:21:51;;;;;;;;;;;;;;;;;;1043513;28;941;-31
2022/03/13 02:22:22;;;;;;;;;;;;;;;;;;1039149;28;1012;-34
2022/03/13 02:22:53;;;;;;;;;;;;;;;;;;1038947;28;1964;-31
2022/03/13 02:23:24;;;;;;;;;;;;;;;;;;1038580;28;957;-33
2022/03/13 02:24:01;;;;;;;;;;;;;;;;;;1039889;28;854;-31
2022/03/13 02:24:32;;;;;;;;;;;;;;;;;;1043570;28;918;-35
2022/03/13 02:25:02;;;;;;;;;;;;;;;;;;1043332;28;1279;-34
2022/03/13 02:25:34;;;;;;;;;;;;;;;;;;1039587;28;886;-31
2022/03/13 02:26:06;;;;;;;;;;;;;;;;;;1039417;28;921;-33
2022/03/13 02:26:37;;;;;;;;;;;;;;;;;;1039527;28;970;-32
2022/03/13 02:27:08;;;;;;;;;;;;;;;;;;1039414;28;1001;-32
2022/03/13 02:27:38;;;;;;;;;;;;;;;;;;1039556;28;874;-34
2022/03/13 02:28:09;;;;;;;;;;;;;;;;;;1039318;28;842;-32
2022/03/13 02:28:50;;;;;;;;;;;;;;;;;;1039492;28;950;-32
2022/03/13 02:29:20;;;;;;;;;;;;;;;;;;1039592;28;922;-32
2022/03/13 02:29:51;;;;;;;;;;;;;;;;;;1039398;28;834;-30
2022/03/13 02:30:22;;;;;;;;;;;;;;;;;;1039614;28;858;-30
2022/03/13 02:30:55;;;;;;;;;;;;;;;;;;1038765;28;953;-32
2022/03/13 02:31:28;;;;;;;;;;;;;;;;;;1039423;28;838;-32
2022/03/13 02:31:59;;;;;;;;;;;;;;;;;;1039508;28;834;-32
2022/03/13 02:32:29;;;;;;;;;;;;;;;;;;1039561;28;815;-30
2022/03/13 02:32:59;;;;;;;;;;;;;;;;;;1039374;28;1208;-33
2022/03/13 02:33:30;;;;;;;;;;;;;;;;;;1039454;28;791;-28
2022/03/13 02:34:00;;;;;;;;;;;;;;;;;;1039497;28;981;-34
2022/03/13 02:34:31;;;;;;;;;;;;;;;;;;1039499;28;902;-30
2022/03/13 02:35:01;;;;;;;;;;;;;;;;;;1039492;28;922;-34
2022/03/13 02:35:32;;;;;;;;;;;;;;;;;;1039355;28;961;-29
2022/03/13 02:36:04;;;;;;;;;;;;;;;;;;1039533;28;914;-34
2022/03/13 02:36:38;;;;;;;;;;;;;;;;;;1039636;28;795;-34
2022/03/13 02:37:16;;;;;;;;;;;;;;;;;;1039278;28;942;-32
2022/03/13 02:38:18;;;;;;;;;;;;;;;;;;1036060;28;630;-34
2022/03/13 02:39:22;;;;;;;;;;;;;;;;;;1039698;28;700;-30
2022/03/13 02:39:53;;;;;;;;;;;;;;;;;;1039253;28;1282;-31
2022/03/13 02:40:24;;;;;;;;;;;;;;;;;;1039621;28;854;-31
2022/03/13 02:40:55;;;;;;;;;;;;;;;;;;1039435;28;819;-30
2022/03/13 02:41:28;;;;;;;;;;;;;;;;;;1039497;28;857;-31
2022/03/13 02:41:59;;;;;;;;;;;;;;;;;;1039280;28;977;-31
2022/03/13 02:42:29;;;;;;;;;;;;;;;;;;1039314;28;1910;-33
2022/03/13 02:42:59;;;;;;;;;;;;;;;;;;1039454;28;938;-31
2022/03/13 02:43:30;;;;;;;;;;;;;;;;;;1039453;28;996;-31
2022/03/13 02:44:00;;;;;;;;;;;;;;;;;;1039398;28;934;-31
2022/03/13 02:44:31;;;;;;;;;;;;;;;;;;1039452;28;866;-31
2022/03/13 02:45:02;;;;;;;;;;;;;;;;;;1043361;28;1193;-30
2022/03/13 02:45:33;;;;;;;;;;;;;;;;;;1042986;28;873;-30
2022/03/13 02:46:14;;;;;;;;;;;;;;;;;;1038989;28;977;-33
2022/03/13 02:46:55;;;;;;;;;;;;;;;;;;1039057;28;1359;-32
2022/03/13 02:47:25;;;;;;;;;;;;;;;;;;1039117;28;977;-34
2022/03/13 02:47:56;;;;;;;;;;;;;;;;;;1041969;28;787;-30
2022/03/13 02:48:26;;;;;;;;;;;;;;;;;;1043628;28;882;-33
2022/03/13 02:48:56;;;;;;;;;;;;;;;;;;1043467;28;866;-31
2022/03/13 02:49:27;;;;;;;;;;;;;;;;;;1043607;28;878;-30
2022/03/13 02:49:58;;;;;;;;;;;;;;;;;;1043494;28;882;-31
2022/03/13 02:50:28;;;;;;;;;;;;;;;;;;1043580;28;957;-32
2022/03/13 02:50:59;;;;;;;;;;;;;;;;;;1043575;28;1436;-33
2022/03/13 02:51:29;;;;;;;;;;;;;;;;;;1043431;28;953;-33
2022/03/13 02:52:02;;;;;;;;;;;;;;;;;;1043502;28;1390;-31
2022/03/13 02:52:32;;;;;;;;;;;;;;;;;;1043546;28;886;-29
2022/03/13 02:53:03;;;;;;;;;;;;;;;;;;1042944;28;831;-35
2022/03/13 02:53:33;;;;;;;;;;;;;;;;;;1043587;28;957;-30
2022/03/13 02:54:07;;;;;;;;;;;;;;;;;;1043300;28;1539;-31
2022/03/13 02:54:37;;;;;;;;;;;;;;;;;;1039247;28;838;-34
2022/03/13 02:55:08;;;;;;;;;;;;;;;;;;1038948;28;838;-31
2022/03/13 02:55:38;;;;;;;;;;;;;;;;;;1039125;28;1619;-30
2022/03/13 02:56:08;;;;;;;;;;;;;;;;;;1039175;28;863;-30
2022/03/13 02:56:39;;;;;;;;;;;;;;;;;;1043535;28;973;-29
2022/03/13 02:57:09;;;;;;;;;;;;;;;;;;1043453;28;826;-27
2022/03/13 02:57:39;;;;;;;;;;;;;;;;;;1043590;28;926;-28
2022/03/13 02:58:10;;;;;;;;;;;;;;;;;;1043236;28;921;-30
2022/03/13 02:58:40;;;;;;;;;;;;;;;;;;1043634;28;945;-32
2022/03/13 02:59:12;;;;;;;;;;;;;;;;;;1043475;28;1012;-32
2022/03/13 02:59:43;;;;;;;;;;;;;;;;;;1043540;28;942;-30
2022/03/13 03:00:15;;;;;;;;;;;;;;;;;;1042821;28;862;-32
2022/03/13 03:00:46;;;;;;;;;;;;;;;;;;1043555;28;894;-33
2022/03/13 03:01:18;;;;;;;;;;;;;;;;;;1043506;28;913;-33
2022/03/13 03:01:49;;;;;;;;;;;;;;;;;;1043632;28;1032;-33
2022/03/13 03:02:19;;;;;;;;;;;;;;;;;;1043480;28;893;-33
2022/03/13 03:02:49;;;;;;;;;;;;;;;;;;1043414;28;1957;-31
2022/03/13 03:03:20;;;;;;;;;;;;;;;;;;1043604;28;819;-31
2022/03/13 03:04:01;;;;;;;;;;;;;;;;;;1043448;28;941;-34
2022/03/13 03:04:31;;;;;;;;;;;;;;;;;;1043410;28;1619;-30
2022/03/13 03:05:04;;;;;;;;;;;;;;;;;;1043574;28;874;-32
2022/03/13 03:05:34;;;;;;;;;;;;;;;;;;1043447;28;1024;-32
2022/03/13 03:06:06;;;;;;;;;;;;;;;;;;1043477;28;791;-33
2022/03/13 03:06:39;;;;;;;;;;;;;;;;;;1043582;28;858;-30
2022/03/13 03:07:11;;;;;;;;;;;;;;;;;;1043531;28;808;-29
2022/03/13 03:07:41;;;;;;;;;;;;;;;;;;1042867;28;858;-31
2022/03/13 03:08:12;;;;;;;;;;;;;;;;;;1043414;28;905;-29
2022/03/13 03:08:42;;;;;;;;;;;;;;;;;;1043609;28;814;-29
2022/03/13 03:09:15;;;;;;;;;;;;;;;;;;1043321;28;918;-28
2022/03/13 03:09:46;;;;;;;;;;;;;;;;;;1043457;28;946;-31
2022/03/13 03:10:17;;;;;;;;;;;;;;;;;;1043584;28;909;-26
2022/03/13 03:10:48;;;;;;;;;;;;;;;;;;1043590;28;870;-27
2022/03/13 03:11:18;;;;;;;;;;;;;;;;;;1043488;28;814;-31
2022/03/13 03:11:49;;;;;;;;;;;;;;;;;;1043419;28;799;-31
2022/03/13 03:12:20;;;;;;;;;;;;;;;;;;1043503;28;874;-31
2022/03/13 03:12:50;;;;;;;;;;;;;;;;;;1043487;28;871;-31
2022/03/13 03:13:21;;;;;;;;;;;;;;;;;;1043401;28;867;-30
2022/03/13 03:13:51;;;;;;;;;;;;;;;;;;1043637;28;853;-32
2022/03/13 03:14:22;;;;;;;;;;;;;;;;;;1043495;28;838;-33
2022/03/13 03:14:52;;;;;;;;;;;;;;;;;;1043363;28;941;-32
2022/03/13 03:15:23;;;;;;;;;;;;;;;;;;1043173;28;878;-31
2022/03/13 03:15:54;;;;;;;;;;;;;;;;;;1043390;28;811;-29
2022/03/13 03:16:26;;;;;;;;;;;;;;;;;;1043906;28;877;-32
2022/03/13 03:16:57;;;;;;;;;;;;;;;;;;1044336;28;1174;-32
2022/03/13 03:17:27;;;;;;;;;;;;;;;;;;1044166;28;1149;-32
2022/03/13 03:18:01;;;;;;;;;;;;;;;;;;1044279;28;834;-34
2022/03/13 03:18:31;;;;;;;;;;;;;;;;;;1044196;28;910;-32
2022/03/13 03:19:02;;;;;;;;;;;;;;;;;;1044285;28;1017;-31
2022/03/13 03:19:32;;;;;;;;;;;;;;;;;;1044150;28;870;-29
2022/03/13 03:20:05;;;;;;;;;;;;;;;;;;1044239;28;911;-32
2022/03/13 03:20:36;;;;;;;;;;;;;;;;;;1044438;28;827;-30
2022/03/13 03:21:07;;;;;;;;;;;;;;;;;;1044128;28;934;-30
2022/03/13 03:21:39;;;;;;;;;;;;;;;;;;1044205;28;961;-32
2022/03/13 03:22:09;;;;;;;;;;;;;;;;;;1044142;28;771;-33
2022/03/13 03:22:40;;;;;;;;;;;;;;;;;;1043691;28;1989;-31
2022/03/13 03:23:10;;;;;;;;;;;;;;;;;;1044195;28;965;-30
2022/03/13 03:23:41;;;;;;;;;;;;;;;;;;1044182;28;1127;-33
2022/03/13 03:24:12;;;;;;;;;;;;;;;;;;1044226;28;934;-33
2022/03/13 03:24:42;;;;;;;;;;;;;;;;;;1044303;28;1037;-34
2022/03/13 03:25:13;;;;;;;;;;;;;;;;;;1042527;28;1315;-34
2022/03/13 03:25:43;;;;;;;;;;;;;;;;;;1040217;28;950;-32
2022/03/13 03:26:14;;;;;;;;;;;;;;;;;;1040016;28;986;-30
2022/03/13 03:26:44;;;;;;;;;;;;;;;;;;1040273;28;881;-32
2022/03/13 03:27:18;;;;;;;;;;;;;;;;;;1040126;28;838;-29
2022/03/13 03:27:52;;;;;;;;;;;;;;;;;;1039773;28;851;-30
2022/03/13 03:28:22;;;;;;;;;;;;;;;;;;1040240;28;893;-30
2022/03/13 03:28:53;;;;;;;;;;;;;;;;;;1040069;28;913;-31
2022/03/13 03:29:24;;;;;;;;;;;;;;;;;;1040123;28;1048;-31
2022/03/13 03:29:55;;;;;;;;;;;;;;;;;;1039482;28;897;-31
2022/03/13 03:30:27;;;;;;;;;;;;;;;;;;1040079;28;886;-28
2022/03/13 03:31:01;;;;;;;;;;;;;;;;;;1040211;28;815;-32
2022/03/13 03:31:31;;;;;;;;;;;;;;;;;;1040001;28;972;-30
2022/03/13 03:32:02;;;;;;;;;;;;;;;;;;1040070;28;974;-31
2022/03/13 03:32:33;;;;;;;;;;;;;;;;;;1039988;28;938;-31
2022/03/13 03:33:03;;;;;;;;;;;;;;;;;;1040201;28;811;-31
2022/03/13 03:33:34;;;;;;;;;;;;;;;;;;1040142;28;865;-31
2022/03/13 03:34:07;;;;;;;;;;;;;;;;;;1035409;28;775;-35
2022/03/13 03:34:37;;;;;;;;;;;;;;;;;;1035951;28;917;-29
2022/03/13 03:35:08;;;;;;;;;;;;;;;;;;1035588;28;866;-32
2022/03/13 03:35:38;;;;;;;;;;;;;;;;;;1036137;28;869;-32
2022/03/13 03:36:13;;;;;;;;;;;;;;;;;;1039922;28;794;-34
2022/03/13 03:36:45;;;;;;;;;;;;;;;;;;1040253;28;814;-33
2022/03/13 03:37:15;;;;;;;;;;;;;;;;;;1039481;28;998;-34
2022/03/13 03:37:47;;;;;;;;;;;;;;;;;;1040004;28;911;-32
2022/03/13 03:38:17;;;;;;;;;;;;;;;;;;1039959;28;989;-33
2022/03/13 03:38:47;;;;;;;;;;;;;;;;;;1040152;28;882;-32
2022/03/13 03:39:18;;;;;;;;;;;;;;;;;;1040112;28;866;-32
2022/03/13 03:39:49;;;;;;;;;;;;;;;;;;1040049;28;850;-29
2022/03/13 03:40:27;;;;;;;;;;;;;;;;;;1040029;28;938;-33
2022/03/13 03:40:58;;;;;;;;;;;;;;;;;;1040140;28;862;-31
2022/03/13 03:41:28;;;;;;;;;;;;;;;;;;1040121;28;892;-28
2022/03/13 03:42:00;;;;;;;;;;;;;;;;;;1040112;28;822;-30
2022/03/13 03:42:30;;;;;;;;;;;;;;;;;;1039805;28;1984;-29
2022/03/13 03:43:02;;;;;;;;;;;;;;;;;;1040165;28;969;-33